This is the latest recevied weather packets stored in our database for station/object KA7KDX-4. If no packets are shown the sender has not sent any weather packets the latest 10 day(s).
| Time | Temp. | Humidity | Pressure | Rain* | Wind** | Luminosity | Snow |
|---|---|---|---|---|---|---|---|
| 1777070105 | 13.89° C | 37% | 1004.9 hPa | 0 mm | - | - | - |
| 1777069805 | 13.89° C | 37% | 1004.8 hPa | 0 mm | - | - | - |
| 1777069506 | 13.89° C | 38% | 1004.8 hPa | 0 mm | - | - | - |
| 1777069206 | 14.44° C | 37% | 1004.7 hPa | 0 mm | - | - | - |
| 1777068906 | 14.44° C | 37% | 1004.8 hPa | 0 mm | - | - | - |
| 1777068606 | 14.44° C | 37% | 1004.8 hPa | 0 mm | - | - | - |
| 1777068306 | 13.89° C | 37% | 1005.2 hPa | 0 mm | - | - | - |
| 1777068005 | 13.89° C | 38% | 1005.3 hPa | 0 mm | - | - | - |
| 1777067705 | 13.89° C | 38% | 1005.3 hPa | 0 mm | - | - | - |
| 1777067405 | 13.89° C | 38% | 1005.5 hPa | 0 mm | - | - | - |
| 1777067105 | 13.89° C | 40% | 1005.6 hPa | 0 mm | - | - | - |
| 1777066805 | 13.89° C | 39% | 1005.6 hPa | 0 mm | - | - | - |
| 1777066506 | 13.89° C | 39% | 1005.7 hPa | 0 mm | - | - | - |
| 1777066206 | 13.89° C | 39% | 1005.8 hPa | 0 mm | - | - | - |
| 1777065906 | 13.89° C | 40% | 1005.9 hPa | 0 mm | - | - | - |
| 1777065606 | 13.33° C | 40% | 1006 hPa | 0 mm | - | - | - |
| 1777065306 | 13.33° C | 41% | 1006.1 hPa | 0 mm | - | - | - |
| 1777065005 | 13.33° C | 40% | 1006.2 hPa | 0 mm | - | - | - |
| 1777064705 | 13.33° C | 41% | 1006.3 hPa | 0 mm | - | - | - |
| 1777064405 | 13.33° C | 41% | 1006.4 hPa | 0 mm | - | - | - |
| 1777064105 | 13.33° C | 41% | 1006.4 hPa | 0 mm | - | - | - |
| 1777063806 | 13.33° C | 41% | 1006.5 hPa | 0 mm | - | - | - |
| 1777063506 | 13.33° C | 41% | 1006.6 hPa | 0 mm | - | - | - |
| 1777063206 | 12.78° C | 41% | 1006.8 hPa | 0 mm | - | - | - |
| 1777062906 | 13.33° C | 41% | 1006.8 hPa | 0 mm | - | - | - |
* Rain latest hour (hover to see other rain measurements)
** Current wind speed in m/s (hover to see current wind gust speed)